createdAt,value
2023-01-27T00:01:07.694Z,8.93
2023-01-27T00:03:36.191Z,8.45
2023-01-27T00:06:06.530Z,9.13
2023-01-27T00:08:36.060Z,9.55
2023-01-27T00:11:21.607Z,10.27
2023-01-27T00:13:49.598Z,10.48
2023-01-27T00:16:17.739Z,10.85
2023-01-27T00:18:45.846Z,12.07
2023-01-27T00:21:31.400Z,12.45
2023-01-27T00:24:18.268Z,12.65
2023-01-27T00:26:46.294Z,12.68
2023-01-27T00:29:14.378Z,12.50
2023-01-27T00:31:59.698Z,13.18
2023-01-27T00:34:27.950Z,12.43
2023-01-27T00:36:55.950Z,12.70
2023-01-27T00:39:25.423Z,12.07
2023-01-27T00:41:53.539Z,10.85
2023-01-27T00:44:23.837Z,12.38
2023-01-27T00:46:52.043Z,12.45
2023-01-27T00:49:20.375Z,11.50
2023-01-27T00:51:48.429Z,11.30
2023-01-27T00:54:16.950Z,12.68
2023-01-27T00:56:49.589Z,11.18
2023-01-27T00:59:17.691Z,11.75
2023-01-27T01:01:46.511Z,12.52
2023-01-27T01:04:14.592Z,11.18
2023-01-27T01:06:42.690Z,10.60
2023-01-27T01:09:11.207Z,10.73
2023-01-27T01:11:39.381Z,11.10
2023-01-27T01:14:08.680Z,11.57
2023-01-27T01:16:37.018Z,10.35
2023-01-27T01:19:05.116Z,11.00
2023-01-27T01:21:33.155Z,9.93
2023-01-27T01:24:01.225Z,11.48
2023-01-27T01:26:29.278Z,10.77
2023-01-27T01:28:57.304Z,11.10
2023-01-27T01:31:26.854Z,11.52
2023-01-27T01:33:54.868Z,10.85
2023-01-27T01:36:24.517Z,10.27
2023-01-27T01:38:55.830Z,10.30
2023-01-27T01:41:26.105Z,11.43
2023-01-27T01:43:54.369Z,10.63
2023-01-27T01:46:23.383Z,12.07
2023-01-27T01:48:55.692Z,12.10
2023-01-27T01:51:31.142Z,12.27
2023-01-27T01:54:02.912Z,11.53
2023-01-27T01:56:35.422Z,11.10
2023-01-27T01:59:09.573Z,10.32
2023-01-27T02:01:37.743Z,9.55
2023-01-27T02:04:12.431Z,7.13
2023-01-27T02:06:50.604Z,6.43
2023-01-27T02:09:19.989Z,6.20
2023-01-27T02:11:48.114Z,6.32
2023-01-27T02:14:18.460Z,5.40
2023-01-27T02:16:46.726Z,5.28
2023-01-27T02:19:22.499Z,5.30
2023-01-27T02:21:51.855Z,5.57
2023-01-27T02:24:21.112Z,5.70
2023-01-27T02:26:51.332Z,5.70
2023-01-27T02:29:19.402Z,6.35
2023-01-27T02:31:47.615Z,6.18
2023-01-27T02:34:18.269Z,5.90
2023-01-27T02:36:49.838Z,6.50
2023-01-27T02:39:20.985Z,7.53
2023-01-27T02:41:52.872Z,7.97
2023-01-27T02:44:21.517Z,8.07
2023-01-27T02:46:49.554Z,8.45
2023-01-27T02:49:17.549Z,8.85
2023-01-27T02:51:46.210Z,8.57
2023-01-27T02:54:14.403Z,8.68
2023-01-27T02:56:43.263Z,8.27
2023-01-27T02:59:15.112Z,8.85
2023-01-27T03:01:43.497Z,9.13
2023-01-27T03:04:12.065Z,9.23
2023-01-27T03:06:40.445Z,9.07
2023-01-27T03:09:08.860Z,9.18
2023-01-27T03:11:55.792Z,8.88
2023-01-27T03:17:28.751Z,9.35
2023-01-27T03:19:58.042Z,11.05
2023-01-27T03:22:27.224Z,9.88
2023-01-27T03:24:55.663Z,10.73
2023-01-27T03:27:24.016Z,10.70
2023-01-27T03:30:13.086Z,12.57
2023-01-27T03:32:48.253Z,10.90
2023-01-27T03:35:49.330Z,11.50
2023-01-27T03:38:39.608Z,11.40
2023-01-27T03:41:25.091Z,12.50
2023-01-27T03:44:10.426Z,11.32
2023-01-27T03:46:39.800Z,10.05
2023-01-27T03:49:07.875Z,11.25
2023-01-27T03:51:35.942Z,10.90
2023-01-27T03:54:03.985Z,11.20
2023-01-27T03:56:32.031Z,10.57
2023-01-27T03:59:00.142Z,10.02
2023-01-27T04:01:28.178Z,11.63
2023-01-27T04:04:15.527Z,10.23
2023-01-27T04:06:53.272Z,11.95
2023-01-27T04:09:24.197Z,11.00
2023-01-27T04:12:00.680Z,11.05
2023-01-27T04:14:30.743Z,11.10
2023-01-27T04:17:00.373Z,11.65
2023-01-27T04:19:30.009Z,10.93
2023-01-27T04:21:59.076Z,10.30
2023-01-27T04:24:27.272Z,10.52
2023-01-27T04:26:59.017Z,11.15
2023-01-27T04:29:29.045Z,10.45
2023-01-27T04:31:57.993Z,11.82
2023-01-27T04:34:26.420Z,9.25
2023-01-27T04:36:56.008Z,9.80
2023-01-27T04:39:24.353Z,8.95
2023-01-27T04:41:52.528Z,9.70
2023-01-27T04:44:21.216Z,9.75
2023-01-27T04:46:54.304Z,9.32
2023-01-27T04:49:26.709Z,9.57
2023-01-27T04:51:56.538Z,9.15
2023-01-27T04:54:24.541Z,8.90
2023-01-27T04:57:04.184Z,8.32
2023-01-27T04:59:33.395Z,8.50
2023-01-27T05:02:01.492Z,9.70
2023-01-27T05:04:29.693Z,10.10
2023-01-27T05:06:59.120Z,9.65
2023-01-27T05:09:27.188Z,9.80
2023-01-27T05:11:55.304Z,10.20
2023-01-27T05:14:24.352Z,9.98
2023-01-27T05:16:52.692Z,9.73
2023-01-27T05:19:20.812Z,12.05
2023-01-27T05:21:48.853Z,10.18
2023-01-27T05:24:18.310Z,12.00
2023-01-27T05:26:46.418Z,11.10
2023-01-27T05:29:14.358Z,11.25
2023-01-27T05:31:42.421Z,11.48
2023-01-27T05:34:10.924Z,9.75
2023-01-27T05:36:38.969Z,12.82
2023-01-27T05:39:08.905Z,12.40
2023-01-27T05:41:38.953Z,15.07
2023-01-27T05:44:07.339Z,14.40
2023-01-27T05:46:35.477Z,14.43
2023-01-27T05:49:05.542Z,15.75
2023-01-27T05:51:35.469Z,15.48
2023-01-27T05:54:03.835Z,15.48
2023-01-27T05:56:31.864Z,15.45
2023-01-27T05:59:01.286Z,15.20
2023-01-27T06:01:31.513Z,15.85
2023-01-27T06:03:59.778Z,14.32
2023-01-27T06:06:29.588Z,17.10
2023-01-27T06:08:57.840Z,16.67
2023-01-27T06:11:26.532Z,16.40
2023-01-27T06:13:55.455Z,17.60
2023-01-27T06:16:27.932Z,18.08
2023-01-27T06:19:02.303Z,16.58
2023-01-27T06:21:33.671Z,18.85
2023-01-27T06:24:02.215Z,17.58
2023-01-27T06:26:30.505Z,17.25
2023-01-27T06:28:58.585Z,17.88
2023-01-27T06:31:28.363Z,17.77
2023-01-27T06:33:56.533Z,14.90
2023-01-27T06:36:24.641Z,17.23
2023-01-27T06:38:53.502Z,15.85
2023-01-27T06:41:21.714Z,15.30
2023-01-27T06:43:49.797Z,15.35
2023-01-27T06:46:17.913Z,16.17
2023-01-27T06:48:47.286Z,14.20
2023-01-27T06:51:15.630Z,14.82
2023-01-27T06:53:48.941Z,15.23
2023-01-27T06:56:17.586Z,14.55
2023-01-27T06:58:45.784Z,15.50
2023-01-27T07:01:13.975Z,15.18
2023-01-27T07:03:44.443Z,15.57
2023-01-27T07:06:15.072Z,15.63
2023-01-27T07:08:45.665Z,15.38
2023-01-27T07:11:13.932Z,14.95
2023-01-27T07:13:41.966Z,15.73
2023-01-27T07:16:09.996Z,15.48
2023-01-27T07:18:38.563Z,15.07
2023-01-27T07:21:07.199Z,15.15
2023-01-27T07:23:36.673Z,15.13
2023-01-27T07:26:12.471Z,15.00
2023-01-27T07:28:47.422Z,14.73
2023-01-27T07:31:15.560Z,14.70
2023-01-27T07:33:43.748Z,13.63
2023-01-27T07:36:11.753Z,16.02
2023-01-27T07:38:41.233Z,13.57
2023-01-27T07:41:09.303Z,12.07
2023-01-27T07:43:37.649Z,12.77
2023-01-27T07:46:09.346Z,14.82
2023-01-27T07:48:37.444Z,14.13
2023-01-27T07:51:08.160Z,15.52
2023-01-27T07:53:36.245Z,14.13
2023-01-27T07:56:06.146Z,14.65
2023-01-27T07:58:34.146Z,13.68
2023-01-27T08:01:06.298Z,15.18
2023-01-27T08:03:34.492Z,12.75
2023-01-27T08:06:06.649Z,13.07
2023-01-27T08:08:37.224Z,12.35
2023-01-27T08:11:09.610Z,12.13
2023-01-27T08:13:38.180Z,10.43
2023-01-27T08:16:08.860Z,11.20
2023-01-27T08:18:36.970Z,9.68
2023-01-27T08:21:07.389Z,8.77
2023-01-27T08:23:35.676Z,9.95
2023-01-27T08:26:06.167Z,8.70
2023-01-27T08:28:38.470Z,8.85
2023-01-27T08:31:08.285Z,8.63
2023-01-27T08:33:36.626Z,8.30
2023-01-27T08:36:06.921Z,9.43
2023-01-27T08:38:37.507Z,9.25
2023-01-27T08:41:07.215Z,9.20
2023-01-27T08:43:36.998Z,9.82
2023-01-27T08:46:06.650Z,10.18
2023-01-27T08:48:37.436Z,14.73
2023-01-27T08:51:07.347Z,9.60
2023-01-27T08:53:36.955Z,9.13
2023-01-27T08:56:10.256Z,9.25
2023-01-27T08:58:39.847Z,9.65
2023-01-27T09:01:09.143Z,8.95
2023-01-27T09:03:37.894Z,8.32
2023-01-27T09:06:08.728Z,9.27
2023-01-27T09:08:37.427Z,8.73
2023-01-27T09:11:13.515Z,9.48
2023-01-27T09:13:44.540Z,8.88
2023-01-27T09:16:12.656Z,8.73
2023-01-27T09:18:42.523Z,10.13
2023-01-27T09:21:11.749Z,9.77
2023-01-27T09:23:39.801Z,11.50
2023-01-27T09:26:07.872Z,11.95
2023-01-27T09:28:36.128Z,9.70
2023-01-27T09:31:05.910Z,10.57
2023-01-27T09:33:34.363Z,10.13
2023-01-27T09:36:06.286Z,10.48
2023-01-27T09:38:38.995Z,10.43
2023-01-27T09:41:26.511Z,10.07
2023-01-27T09:44:24.818Z,9.55
2023-01-27T09:47:14.612Z,10.55
2023-01-27T09:50:03.555Z,9.88
2023-01-27T09:52:48.414Z,8.98
2023-01-27T09:55:22.981Z,8.85
2023-01-27T09:57:58.782Z,9.00
2023-01-27T10:00:45.776Z,9.02
2023-01-27T10:03:28.381Z,9.10
2023-01-27T10:06:19.918Z,8.60
2023-01-27T10:09:19.684Z,8.68
2023-01-27T10:12:01.948Z,13.27
2023-01-27T10:14:40.826Z,12.82
2023-01-27T10:17:24.399Z,12.40
2023-01-27T10:20:10.723Z,14.00
2023-01-27T10:22:51.068Z,12.13
2023-01-27T10:25:29.930Z,13.13
2023-01-27T10:27:59.291Z,11.13
2023-01-27T10:30:33.999Z,12.50
2023-01-27T10:33:11.977Z,10.27
2023-01-27T10:35:50.301Z,9.70
2023-01-27T10:38:27.510Z,9.98
2023-01-27T10:41:03.877Z,10.30
2023-01-27T10:43:42.155Z,8.98
2023-01-27T10:46:22.284Z,8.63
2023-01-27T10:48:53.194Z,9.65
2023-01-27T10:51:27.324Z,8.00
2023-01-27T10:53:59.498Z,8.30
2023-01-27T10:56:35.300Z,7.72
2023-01-27T10:59:09.938Z,6.63
2023-01-27T11:01:42.222Z,7.20
2023-01-27T11:04:16.447Z,7.35
2023-01-27T11:06:47.756Z,6.57
2023-01-27T11:09:26.115Z,6.75
2023-01-27T11:11:58.386Z,5.93
2023-01-27T11:14:29.929Z,6.05
2023-01-27T11:17:04.749Z,5.32
2023-01-27T11:19:43.784Z,5.40
2023-01-27T11:22:21.029Z,5.68
2023-01-27T11:24:54.590Z,5.20
2023-01-27T11:27:33.186Z,4.93
2023-01-27T11:30:07.762Z,5.65
2023-01-27T11:32:46.048Z,5.05
2023-01-27T11:35:16.341Z,5.53
2023-01-27T11:37:49.024Z,4.65
2023-01-27T11:40:19.820Z,4.82
2023-01-27T11:42:48.135Z,5.00
2023-01-27T11:45:17.994Z,4.30
2023-01-27T11:47:48.396Z,4.78
2023-01-27T11:50:18.414Z,9.27
2023-01-27T11:52:51.772Z,4.50
2023-01-27T11:55:24.949Z,4.80
2023-01-27T11:57:57.589Z,4.50
2023-01-27T12:00:31.461Z,3.58
2023-01-27T12:03:08.729Z,4.47
2023-01-27T12:05:42.178Z,4.22
2023-01-27T12:08:11.724Z,4.45
2023-01-27T12:10:42.422Z,4.03
2023-01-27T12:13:17.919Z,3.63
2023-01-27T12:15:51.182Z,9.85
2023-01-27T12:18:19.530Z,4.10
2023-01-27T12:20:50.479Z,4.28
2023-01-27T12:23:32.311Z,5.25
2023-01-27T12:26:02.975Z,4.80
2023-01-27T12:28:35.493Z,4.93
2023-01-27T12:31:06.767Z,4.88
2023-01-27T12:33:38.611Z,4.30
2023-01-27T12:36:14.665Z,5.03
2023-01-27T12:38:51.584Z,5.30
2023-01-27T12:41:25.055Z,5.03
2023-01-27T12:43:55.658Z,5.18
2023-01-27T12:46:25.495Z,5.53
2023-01-27T12:48:55.117Z,7.40
2023-01-27T12:51:24.791Z,6.18
2023-01-27T12:54:21.687Z,7.22
2023-01-27T12:56:50.493Z,6.40
2023-01-27T12:59:21.371Z,7.10
2023-01-27T13:02:01.509Z,6.25
2023-01-27T13:04:31.135Z,6.20
2023-01-27T13:07:08.025Z,12.30
2023-01-27T13:09:41.267Z,7.47
2023-01-27T13:12:17.983Z,7.40
2023-01-27T13:14:46.278Z,7.20
2023-01-27T13:17:30.201Z,5.93
2023-01-27T13:20:02.236Z,6.05
2023-01-27T13:22:37.453Z,10.23
2023-01-27T13:25:11.102Z,6.28
2023-01-27T13:27:41.034Z,5.75
2023-01-27T13:30:18.077Z,5.80
2023-01-27T13:37:17.523Z,4.05
2023-01-27T13:40:07.806Z,7.22
2023-01-27T13:42:44.863Z,3.03
2023-01-27T13:45:16.515Z,2.70
2023-01-27T13:47:53.116Z,2.83
2023-01-27T13:50:29.872Z,2.90
2023-01-27T13:52:59.770Z,2.55
2023-01-27T13:55:43.476Z,2.65
2023-01-27T13:58:22.546Z,3.85
2023-01-27T14:05:32.080Z,2.55
2023-01-27T14:08:13.226Z,2.70
2023-01-27T14:10:45.064Z,2.80
2023-01-27T14:13:34.048Z,3.10
2023-01-27T14:16:10.763Z,3.00
2023-01-27T14:18:43.769Z,2.92
2023-01-27T14:21:34.686Z,5.13
2023-01-27T14:24:23.990Z,3.05
2023-01-27T14:27:00.975Z,4.43
2023-01-27T14:29:40.344Z,2.80
2023-01-27T14:32:20.281Z,2.65
2023-01-27T14:35:12.795Z,3.60
2023-01-27T14:37:48.812Z,2.60
2023-01-27T14:40:21.640Z,2.33
2023-01-27T14:43:05.778Z,2.40
2023-01-27T14:45:38.706Z,1.98
2023-01-27T14:48:19.887Z,2.13
2023-01-27T14:50:54.009Z,2.22
2023-01-27T14:53:41.221Z,2.13
2023-01-27T14:56:17.119Z,2.08
2023-01-27T14:58:51.931Z,3.13
2023-01-27T15:01:34.173Z,2.40
2023-01-27T15:04:26.595Z,2.33
2023-01-27T15:07:00.329Z,2.40
2023-01-27T15:09:49.034Z,2.30
2023-01-27T15:12:48.262Z,2.40
2023-01-27T15:15:44.193Z,2.30
2023-01-27T15:18:27.413Z,2.50
2023-01-27T15:21:11.486Z,2.70
2023-01-27T15:24:02.647Z,3.17
2023-01-27T15:26:32.451Z,3.03
2023-01-27T15:29:01.309Z,2.80
2023-01-27T15:31:31.033Z,3.10
2023-01-27T15:34:21.325Z,3.40
2023-01-27T15:37:02.014Z,3.53
2023-01-27T15:39:40.880Z,3.80
2023-01-27T15:42:12.968Z,4.20
2023-01-27T15:44:58.155Z,3.53
2023-01-27T15:47:28.027Z,3.88
2023-01-27T15:50:09.380Z,3.90
2023-01-27T15:52:42.927Z,3.30
2023-01-27T15:55:25.680Z,4.20
2023-01-27T15:58:03.234Z,3.83
2023-01-27T16:00:35.343Z,3.88
2023-01-27T16:03:05.739Z,3.50
2023-01-27T16:05:42.799Z,3.60
2023-01-27T16:08:14.227Z,3.50
2023-01-27T16:10:43.026Z,3.40
2023-01-27T16:13:22.927Z,3.40
2023-01-27T16:15:51.410Z,3.70
2023-01-27T16:18:45.005Z,3.78
2023-01-27T16:21:38.388Z,3.75
2023-01-27T16:24:14.904Z,3.88
2023-01-27T16:26:47.605Z,3.80
2023-01-27T16:29:32.512Z,4.25
2023-01-27T16:32:05.927Z,4.40
2023-01-27T16:34:42.576Z,4.03
2023-01-27T16:37:25.143Z,3.95
2023-01-27T16:40:00.032Z,3.83
2023-01-27T16:42:34.845Z,3.95
2023-01-27T16:45:10.180Z,4.22
2023-01-27T16:47:44.775Z,3.95
2023-01-27T16:50:35.021Z,4.38
2023-01-27T16:53:06.174Z,4.20
2023-01-27T16:55:35.469Z,4.53
2023-01-27T16:58:03.988Z,4.32
2023-01-27T17:00:35.647Z,5.60
2023-01-27T17:03:13.997Z,6.13
2023-01-27T17:05:42.617Z,11.45
2023-01-27T17:08:22.774Z,5.82
2023-01-27T17:10:53.426Z,5.70
2023-01-27T17:13:30.224Z,5.47
2023-01-27T17:16:00.489Z,5.63
2023-01-27T17:18:33.136Z,5.70
2023-01-27T17:21:03.698Z,5.80
2023-01-27T17:23:36.487Z,6.10
2023-01-27T17:26:07.875Z,5.43
2023-01-27T17:28:36.889Z,6.30
2023-01-27T17:31:08.037Z,6.22
2023-01-27T17:33:37.888Z,6.60
2023-01-27T17:36:11.182Z,7.25
2023-01-27T17:38:47.198Z,6.50
2023-01-27T17:41:26.299Z,5.90
2023-01-27T17:43:55.863Z,5.28
2023-01-27T17:46:25.791Z,5.68
2023-01-27T17:48:56.409Z,5.57
2023-01-27T17:51:26.210Z,5.50
2023-01-27T17:53:56.558Z,5.55
2023-01-27T17:56:28.921Z,8.20
2023-01-27T17:59:01.793Z,5.40
2023-01-27T18:01:30.491Z,5.80
2023-01-27T18:03:59.028Z,4.90
2023-01-27T18:06:29.545Z,4.85
2023-01-27T18:09:02.880Z,4.80
2023-01-27T18:11:37.536Z,4.75
2023-01-27T18:14:10.826Z,5.25
2023-01-27T18:16:38.911Z,4.93
2023-01-27T18:19:10.024Z,5.03
2023-01-27T18:21:38.102Z,4.80
2023-01-27T18:24:25.113Z,5.40
2023-01-27T18:26:56.671Z,5.10
2023-01-27T18:29:39.051Z,4.63
2023-01-27T18:32:16.514Z,5.05
2023-01-27T18:34:49.703Z,4.72
2023-01-27T18:37:27.305Z,5.70
2023-01-27T18:39:58.955Z,5.10
2023-01-27T18:42:30.529Z,5.38
2023-01-27T18:44:58.890Z,5.60
2023-01-27T18:47:30.176Z,5.90
2023-01-27T18:50:03.320Z,6.15
2023-01-27T18:52:31.512Z,6.05
2023-01-27T18:55:03.597Z,5.70
2023-01-27T18:57:31.684Z,6.70
2023-01-27T18:59:59.631Z,6.43
2023-01-27T19:02:27.817Z,6.55
2023-01-27T19:04:55.951Z,7.25
2023-01-27T19:07:24.050Z,6.50
2023-01-27T19:09:52.413Z,6.88
2023-01-27T19:12:21.936Z,6.35
2023-01-27T19:14:49.895Z,6.80
2023-01-27T19:17:22.670Z,6.47
2023-01-27T19:19:50.978Z,6.97
2023-01-27T19:22:22.935Z,7.30
2023-01-27T19:24:50.917Z,7.53
2023-01-27T19:27:19.949Z,7.32
2023-01-27T19:29:49.639Z,7.30
2023-01-27T19:32:17.704Z,6.82
2023-01-27T19:34:45.712Z,7.95
2023-01-27T19:37:18.888Z,7.60
2023-01-27T19:39:48.941Z,7.55
2023-01-27T19:42:17.435Z,7.03
2023-01-27T19:44:45.515Z,7.13
2023-01-27T19:47:15.098Z,7.50
2023-01-27T19:49:43.227Z,6.97
2023-01-27T19:52:11.302Z,6.35
2023-01-27T19:54:39.399Z,7.05
2023-01-27T19:57:11.083Z,6.72
2023-01-27T19:59:39.082Z,7.32
2023-01-27T20:02:07.656Z,6.13
2023-01-27T20:04:37.066Z,6.72
2023-01-27T20:07:05.160Z,6.65
2023-01-27T20:09:33.193Z,6.20
2023-01-27T20:12:01.244Z,6.55
2023-01-27T20:14:29.369Z,7.15
2023-01-27T20:16:58.567Z,6.00
2023-01-27T20:19:26.636Z,6.25
2023-01-27T20:21:58.770Z,6.03
2023-01-27T20:24:26.970Z,6.07
2023-01-27T20:26:56.458Z,5.85
2023-01-27T20:29:24.597Z,5.68
2023-01-27T20:31:53.109Z,6.22
2023-01-27T20:34:21.334Z,6.20
2023-01-27T20:36:49.399Z,6.25
2023-01-27T20:39:18.741Z,7.05
2023-01-27T20:41:47.283Z,6.35
2023-01-27T20:44:15.380Z,6.82
2023-01-27T20:46:43.992Z,6.57
2023-01-27T20:49:12.038Z,6.20
2023-01-27T20:51:40.118Z,6.15
2023-01-27T20:54:08.135Z,6.55
2023-01-27T20:56:37.527Z,6.85
2023-01-27T20:59:05.674Z,6.72
2023-01-27T21:01:33.888Z,5.97
2023-01-27T21:04:01.916Z,6.70
2023-01-27T21:06:29.942Z,6.00
2023-01-27T21:08:57.948Z,5.63
2023-01-27T21:11:25.998Z,5.53
2023-01-27T21:13:58.307Z,5.70
2023-01-27T21:16:27.897Z,5.65
2023-01-27T21:18:56.081Z,5.40
2023-01-27T21:21:26.774Z,5.00
2023-01-27T21:23:55.424Z,5.35
2023-01-27T21:26:24.077Z,5.43
2023-01-27T21:28:52.636Z,4.72
2023-01-27T21:31:24.252Z,5.28
2023-01-27T21:33:52.455Z,4.50
2023-01-27T21:36:20.509Z,4.93
2023-01-27T21:38:50.226Z,4.88
2023-01-27T21:41:45.767Z,4.40
2023-01-27T21:44:35.459Z,47.47
2023-01-27T21:47:06.073Z,9.40
2023-01-27T21:49:35.224Z,4.05
2023-01-27T21:52:03.622Z,4.00
2023-01-27T21:54:31.773Z,4.63
2023-01-27T21:56:59.783Z,4.63
2023-01-27T21:59:27.824Z,4.18
2023-01-27T22:01:56.011Z,4.03
2023-01-27T22:04:25.653Z,4.45
2023-01-27T22:06:53.768Z,4.18
2023-01-27T22:09:21.775Z,4.47
2023-01-27T22:11:49.854Z,4.50
2023-01-27T22:14:17.872Z,4.72
2023-01-27T22:16:46.003Z,4.63
2023-01-27T22:19:14.168Z,4.22
2023-01-27T22:21:43.675Z,3.72
2023-01-27T22:24:11.806Z,3.83
2023-01-27T22:26:40.021Z,4.72
2023-01-27T22:29:08.148Z,4.40
2023-01-27T22:31:37.677Z,4.55
2023-01-27T22:34:05.739Z,4.05
2023-01-27T22:36:33.828Z,3.90
2023-01-27T22:39:03.250Z,4.55
2023-01-27T22:41:31.411Z,4.70
2023-01-27T22:44:00.824Z,4.25
2023-01-27T22:46:28.887Z,4.57
2023-01-27T22:48:56.895Z,4.38
2023-01-27T22:51:24.895Z,4.13
2023-01-27T22:53:52.909Z,3.90
2023-01-27T22:56:22.392Z,4.57
2023-01-27T22:58:50.449Z,3.85
2023-01-27T23:01:18.505Z,3.70
2023-01-27T23:03:46.524Z,3.85
2023-01-27T23:06:17.559Z,4.30
2023-01-27T23:08:45.628Z,4.70
2023-01-27T23:11:13.717Z,4.93
2023-01-27T23:13:43.199Z,4.53
2023-01-27T23:16:11.456Z,4.68
2023-01-27T23:18:39.556Z,4.32
2023-01-27T23:21:09.030Z,3.95
2023-01-27T23:23:37.209Z,4.32
2023-01-27T23:26:07.868Z,4.53
2023-01-27T23:28:37.518Z,5.10
2023-01-27T23:31:10.083Z,4.90
2023-01-27T23:33:39.854Z,4.55
2023-01-27T23:36:09.412Z,5.60
2023-01-27T23:38:38.080Z,5.32
2023-01-27T23:41:07.797Z,5.55
2023-01-27T23:43:36.087Z,5.07
2023-01-27T23:46:04.202Z,5.30
2023-01-27T23:48:33.557Z,5.18
2023-01-27T23:51:07.300Z,5.22
2023-01-27T23:53:35.303Z,5.47
2023-01-27T23:56:03.399Z,5.32
2023-01-27T23:58:31.436Z,5.82
